Time,TemperatureF,DewpointF,PressureIn,WindDirection,WindDirectionDegrees,WindSpeedMPH,WindSpeedGustMPH,Humidity,HourlyPrecipIn,Conditions,Clouds,dailyrainin,SoftwareType,DateUTC
2013-05-02 00:00:00,48.2,15.8,29.93,West,271,0.0,0.0,27,0.00,,---,0.00,VWS V14.00,2013-05-02 07:00:00,
2013-05-02 00:02:00,48.1,15.7,29.93,West,271,0.0,0.0,27,0.00,,---,0.00,VWS V14.00,2013-05-02 07:02:00,
2013-05-02 00:08:00,48.8,16.3,29.93,West,271,0.0,0.0,27,0.00,,---,0.00,VWS V14.00,2013-05-02 07:08:00,
2013-05-02 00:13:00,50.0,19.0,29.93,West,271,0.0,0.0,29,0.00,,---,0.00,VWS V14.00,2013-05-02 07:13:00,
2013-05-02 00:18:00,49.8,16.3,29.93,West,271,0.0,0.0,26,0.00,,---,0.00,VWS V14.00,2013-05-02 07:18:00,
2013-05-02 00:23:00,49.0,13.8,29.93,West,271,0.0,0.0,24,0.00,,---,0.00,VWS V14.00,2013-05-02 07:23:00,
2013-05-02 00:28:00,47.9,14.7,29.93,West,271,0.0,0.0,26,0.00,,---,0.00,VWS V14.00,2013-05-02 07:28:00,
2013-05-02 00:30:00,47.5,16.8,29.93,West,271,0.0,0.0,29,0.00,,---,0.00,VWS V14.00,2013-05-02 07:30:00,
2013-05-02 00:33:00,47.6,17.7,29.93,West,271,0.0,0.0,30,0.00,,---,0.00,VWS V14.00,2013-05-02 07:33:00,
2013-05-02 00:38:00,47.6,14.4,29.93,West,271,0.0,0.0,26,0.00,,---,0.00,VWS V14.00,2013-05-02 07:38:00,
2013-05-02 00:43:00,46.9,14.7,29.93,West,271,0.0,0.0,27,0.00,,---,0.00,VWS V14.00,2013-05-02 07:43:00,
2013-05-02 00:48:00,46.2,15.7,29.93,West,271,0.0,0.0,29,0.00,,---,0.00,VWS V14.00,2013-05-02 07:48:00,
2013-05-02 00:53:00,46.2,17.2,29.93,West,271,0.0,0.0,31,0.00,,---,0.00,VWS V14.00,2013-05-02 07:53:00,
2013-05-02 00:58:00,46.6,16.1,29.93,West,271,0.0,0.0,29,0.00,,---,0.00,VWS V14.00,2013-05-02 07:58:00,
2013-05-02 01:00:00,46.3,15.8,29.93,West,271,0.0,0.0,29,0.00,,---,0.00,VWS V14.00,2013-05-02 08:00:00,
2013-05-02 01:03:00,46.1,15.6,29.93,West,271,0.0,0.0,29,0.00,,---,0.00,VWS V14.00,2013-05-02 08:03:00,
2013-05-02 01:08:00,45.5,15.1,29.93,West,271,0.0,0.0,29,0.00,,---,0.00,VWS V14.00,2013-05-02 08:08:00,
2013-05-02 01:13:00,45.0,16.2,29.93,West,271,0.0,0.0,31,0.00,,---,0.00,VWS V14.00,2013-05-02 08:13:00,
2013-05-02 01:18:00,45.5,17.4,29.93,West,271,0.0,0.0,32,0.00,,---,0.00,VWS V14.00,2013-05-02 08:18:00,
2013-05-02 01:23:00,46.1,15.6,29.93,West,271,0.0,0.0,29,0.00,,---,0.00,VWS V14.00,2013-05-02 08:23:00,
2013-05-02 01:28:00,45.6,15.2,29.93,West,271,0.0,0.0,29,0.00,,---,0.00,VWS V14.00,2013-05-02 08:28:00,
2013-05-02 01:30:00,45.3,14.1,29.93,West,271,0.0,0.0,28,0.00,,---,0.00,VWS V14.00,2013-05-02 08:30:00,
2013-05-02 01:33:00,45.0,14.7,29.93,West,271,0.0,0.0,29,0.00,,---,0.00,VWS V14.00,2013-05-02 08:33:00,
2013-05-02 01:38:00,43.9,13.7,29.93,West,271,0.0,0.0,29,0.00,,---,0.00,VWS V14.00,2013-05-02 08:38:00,
2013-05-02 01:43:00,43.6,15.7,29.93,West,271,0.0,0.0,32,0.00,,---,0.00,VWS V14.00,2013-05-02 08:43:00,
2013-05-02 01:48:00,44.8,16.0,29.93,West,271,0.0,0.0,31,0.00,,---,0.00,VWS V14.00,2013-05-02 08:48:00,
2013-05-02 01:53:00,45.7,18.3,29.93,West,271,0.0,0.0,33,0.00,,---,0.00,VWS V14.00,2013-05-02 08:53:00,
2013-05-02 01:58:00,46.3,15.8,29.93,West,271,0.0,0.0,29,0.00,,---,0.00,VWS V14.00,2013-05-02 08:58:00,
2013-05-02 02:00:00,46.1,15.6,29.93,West,271,0.0,0.0,29,0.00,,---,0.00,VWS V14.00,2013-05-02 09:00:00,
2013-05-02 02:03:00,46.0,16.3,29.93,West,271,0.0,0.0,30,0.00,,---,0.00,VWS V14.00,2013-05-02 09:03:00,
2013-05-02 02:08:00,45.7,16.1,29.93,West,271,0.0,0.0,30,0.00,,---,0.00,VWS V14.00,2013-05-02 09:08:00,
2013-05-02 02:13:00,45.6,16.0,29.93,West,271,0.0,0.0,30,0.00,,---,0.00,VWS V14.00,2013-05-02 09:13:00,
2013-05-02 02:19:00,45.4,17.3,29.93,West,271,0.0,0.0,32,0.00,,---,0.00,VWS V14.00,2013-05-02 09:19:00,
2013-05-02 02:24:00,46.1,18.6,29.94,West,271,0.0,0.0,33,0.00,,---,0.00,VWS V14.00,2013-05-02 09:24:00,
2013-05-02 02:29:00,47.3,18.2,29.94,West,271,0.0,0.0,31,0.00,,---,0.00,VWS V14.00,2013-05-02 09:29:00,
2013-05-02 02:30:00,47.4,17.5,29.94,West,271,0.0,0.0,30,0.00,,---,0.00,VWS V14.00,2013-05-02 09:30:00,
2013-05-02 02:34:00,47.2,16.6,29.94,West,271,0.0,0.0,29,0.00,,---,0.00,VWS V14.00,2013-05-02 09:34:00,
2013-05-02 02:39:00,46.7,18.4,29.94,West,271,0.0,0.0,32,0.00,,---,0.00,VWS V14.00,2013-05-02 09:39:00,
2013-05-02 02:44:00,45.9,17.0,29.94,West,271,0.0,0.0,31,0.00,,---,0.00,VWS V14.00,2013-05-02 09:44:00,
2013-05-02 02:49:00,46.1,17.2,29.95,West,271,0.0,0.0,31,0.00,,---,0.00,VWS V14.00,2013-05-02 09:49:00,
2013-05-02 02:54:00,45.6,17.5,29.95,West,271,0.0,0.0,32,0.00,,---,0.00,VWS V14.00,2013-05-02 09:54:00,
2013-05-02 02:59:00,44.9,14.6,29.95,West,271,0.0,0.0,29,0.00,,---,0.00,VWS V14.00,2013-05-02 09:59:00,
2013-05-02 03:00:00,44.2,15.5,29.95,West,271,0.0,0.0,31,0.00,,---,0.00,VWS V14.00,2013-05-02 10:00:00,
2013-05-02 03:04:00,43.6,15.7,29.95,West,271,0.0,0.0,32,0.00,,---,0.00,VWS V14.00,2013-05-02 10:04:00,
2013-05-02 03:09:00,43.2,16.7,29.95,West,271,0.0,0.0,34,0.00,,---,0.00,VWS V14.00,2013-05-02 10:09:00,
2013-05-02 03:14:00,42.7,15.6,29.95,West,271,0.0,0.0,33,0.00,,---,0.00,VWS V14.00,2013-05-02 10:14:00,
2013-05-02 03:19:00,42.3,15.9,29.95,West,271,0.0,0.0,34,0.00,,---,0.00,VWS V14.00,2013-05-02 10:19:00,
2013-05-02 03:24:00,41.7,14.0,29.95,West,271,0.0,0.0,32,0.00,,---,0.00,VWS V14.00,2013-05-02 10:24:00,
2013-05-02 03:29:00,41.4,16.5,29.95,West,271,0.0,0.0,36,0.00,,---,0.00,VWS V14.00,2013-05-02 10:29:00,
2013-05-02 03:30:00,41.5,15.9,29.95,West,271,0.0,0.0,35,0.00,,---,0.00,VWS V14.00,2013-05-02 10:30:00,
2013-05-02 03:34:00,41.7,16.1,29.95,West,271,0.0,0.0,35,0.00,,---,0.00,VWS V14.00,2013-05-02 10:34:00,
2013-05-02 03:39:00,42.3,16.6,29.95,West,271,0.0,0.0,35,0.00,,---,0.00,VWS V14.00,2013-05-02 10:39:00,
2013-05-02 03:44:00,43.3,17.5,29.95,West,271,0.0,0.0,35,0.00,,---,0.00,VWS V14.00,2013-05-02 10:44:00,
2013-05-02 03:49:00,44.7,19.4,29.95,West,271,0.0,0.0,36,0.00,,---,0.00,VWS V14.00,2013-05-02 10:49:00,
2013-05-02 03:54:00,46.5,19.0,29.95,West,271,0.0,0.0,33,0.00,,---,0.00,VWS V14.00,2013-05-02 10:54:00,
2013-05-02 03:59:00,47.2,18.9,29.95,West,271,0.0,0.0,32,0.00,,---,0.00,VWS V14.00,2013-05-02 10:59:00,
2013-05-02 04:00:00,47.6,20.6,29.95,West,271,0.0,0.0,34,0.00,,---,0.00,VWS V14.00,2013-05-02 11:00:00,
2013-05-02 04:04:00,48.2,19.7,29.95,West,271,0.0,0.0,32,0.00,,---,0.00,VWS V14.00,2013-05-02 11:04:00,
2013-05-02 04:09:00,48.4,17.6,29.95,West,271,0.0,0.0,29,0.00,,---,0.00,VWS V14.00,2013-05-02 11:09:00,
2013-05-02 04:14:00,47.0,15.6,29.95,West,271,0.0,0.0,28,0.00,,---,0.00,VWS V14.00,2013-05-02 11:14:00,
2013-05-02 04:19:00,45.3,16.5,29.96,West,271,0.0,0.0,31,0.00,,---,0.00,VWS V14.00,2013-05-02 11:19:00,
2013-05-02 04:24:00,44.6,17.3,29.96,West,271,0.0,0.0,33,0.00,,---,0.00,VWS V14.00,2013-05-02 11:24:00,
2013-05-02 04:29:00,44.0,16.8,29.96,West,271,0.0,0.0,33,0.00,,---,0.00,VWS V14.00,2013-05-02 11:29:00,
2013-05-02 04:30:00,43.8,17.3,29.97,West,271,0.0,0.0,34,0.00,,---,0.00,VWS V14.00,2013-05-02 11:30:00,
2013-05-02 04:35:00,44.1,18.9,29.96,West,271,0.0,0.0,36,0.00,,---,0.00,VWS V14.00,2013-05-02 11:35:00,
2013-05-02 04:40:00,45.4,18.0,29.97,West,271,0.0,0.0,33,0.00,,---,0.00,VWS V14.00,2013-05-02 11:40:00,
2013-05-02 04:45:00,45.3,18.6,29.97,West,271,0.0,0.0,34,0.00,,---,0.00,VWS V14.00,2013-05-02 11:45:00,
2013-05-02 04:50:00,45.2,17.1,29.97,West,271,0.0,0.0,32,0.00,,---,0.00,VWS V14.00,2013-05-02 11:50:00,
2013-05-02 04:55:00,44.0,15.3,29.97,West,271,0.0,0.0,31,0.00,,---,0.00,VWS V14.00,2013-05-02 11:55:00,
2013-05-02 05:00:00,43.0,17.2,29.97,West,271,0.0,0.0,35,0.00,,---,0.00,VWS V14.00,2013-05-02 12:00:00,
2013-05-02 05:05:00,42.4,15.4,29.97,West,271,0.0,0.0,33,0.00,,---,0.00,VWS V14.00,2013-05-02 12:05:00,
2013-05-02 05:10:00,41.5,15.9,29.97,West,271,0.0,0.0,35,0.00,,---,0.00,VWS V14.00,2013-05-02 12:10:00,
2013-05-02 05:15:00,41.3,18.8,29.97,West,271,0.0,0.0,40,0.00,,---,0.00,VWS V14.00,2013-05-02 12:15:00,
2013-05-02 05:20:00,42.4,18.0,29.98,West,271,0.0,0.0,37,0.00,,---,0.00,VWS V14.00,2013-05-02 12:20:00,
2013-05-02 05:25:00,44.0,19.4,29.98,West,271,0.0,0.0,37,0.00,,---,0.00,VWS V14.00,2013-05-02 12:25:00,
2013-05-02 05:30:00,45.9,17.0,29.98,West,274,1.0,2.0,31,0.00,,---,0.00,VWS V14.00,2013-05-02 12:30:00,
2013-05-02 05:35:00,52.0,15.4,29.99,West,276,0.0,1.0,23,0.00,,---,0.00,VWS V14.00,2013-05-02 12:35:00,
2013-05-02 05:40:00,55.1,15.9,29.99,West,276,0.0,1.0,21,0.00,,---,0.00,VWS V14.00,2013-05-02 12:40:00,
2013-05-02 05:45:00,56.9,16.3,30.00,West,276,0.0,1.0,20,0.00,,---,0.00,VWS V14.00,2013-05-02 12:45:00,
2013-05-02 05:50:00,58.9,16.7,30.00,North,5,4.0,5.0,19,0.00,,---,0.00,VWS V14.00,2013-05-02 12:50:00,
2013-05-02 05:55:00,60.6,15.6,30.00,NW,320,1.0,5.0,17,0.00,,---,0.00,VWS V14.00,2013-05-02 12:55:00,
2013-05-02 06:00:00,61.2,14.7,30.00,NW,319,1.0,5.0,16,0.00,,---,0.00,VWS V14.00,2013-05-02 13:00:00,
2013-05-02 06:05:00,61.2,14.7,30.00,NW,318,1.0,3.0,16,0.00,,---,0.00,VWS V14.00,2013-05-02 13:05:00,
2013-05-02 06:10:00,62.1,15.4,30.00,North,350,3.0,5.0,16,0.00,,---,0.00,VWS V14.00,2013-05-02 13:10:00,
2013-05-02 06:15:00,63.4,16.5,30.00,NNW,340,0.0,9.0,16,0.00,,---,0.00,VWS V14.00,2013-05-02 13:15:00,
2013-05-02 06:20:00,64.4,14.2,30.01,NNE,23,6.0,14.0,14,0.00,,---,0.00,VWS V14.00,2013-05-02 13:20:00,
2013-05-02 06:25:00,65.0,14.7,30.01,NNE,19,4.0,14.0,14,0.00,,---,0.00,VWS V14.00,2013-05-02 13:25:00,
2013-05-02 06:30:00,65.3,13.2,30.01,NNE,28,6.0,14.0,13,0.00,,---,0.00,VWS V14.00,2013-05-02 13:30:00,
2013-05-02 06:36:00,65.7,15.2,30.01,North,360,6.0,11.0,14,0.00,,---,0.00,VWS V14.00,2013-05-02 13:36:00,
2013-05-02 06:41:00,65.6,15.1,30.01,NNE,21,2.0,11.0,14,0.00,,---,0.00,VWS V14.00,2013-05-02 13:41:00,
2013-05-02 06:46:00,65.8,15.3,30.01,North,5,0.0,11.0,14,0.00,,---,0.00,VWS V14.00,2013-05-02 13:46:00,
2013-05-02 06:51:00,66.1,13.9,30.01,North,10,1.0,11.0,13,0.00,,---,0.00,VWS V14.00,2013-05-02 13:51:00,
2013-05-02 06:56:00,66.7,14.3,30.01,NNW,341,0.0,11.0,13,0.00,,---,0.00,VWS V14.00,2013-05-02 13:56:00,
2013-05-02 07:00:00,67.2,14.7,30.01,ENE,74,3.0,13.0,13,0.00,,---,0.00,VWS V14.00,2013-05-02 14:00:00,
2013-05-02 07:01:00,67.2,14.7,30.01,ENE,65,4.0,13.0,13,0.00,,---,0.00,VWS V14.00,2013-05-02 14:01:00,
2013-05-02 07:06:00,67.7,15.1,30.01,NE,55,0.0,5.0,13,0.00,,---,0.00,VWS V14.00,2013-05-02 14:06:00,
2013-05-02 07:11:00,68.0,17.1,30.01,NE,48,7.0,14.0,14,0.00,,---,0.00,VWS V14.00,2013-05-02 14:11:00,
2013-05-02 07:16:00,67.9,17.0,30.02,NNE,20,1.0,14.0,14,0.00,,---,0.00,VWS V14.00,2013-05-02 14:16:00,
2013-05-02 07:21:00,68.2,15.5,30.02,NE,43,6.0,14.0,13,0.00,,---,0.00,VWS V14.00,2013-05-02 14:21:00,
2013-05-02 07:26:00,67.8,15.2,30.02,ENE,67,2.0,14.0,13,0.00,,---,0.00,VWS V14.00,2013-05-02 14:26:00,
2013-05-02 07:30:00,67.8,13.4,30.02,East,81,4.0,14.0,12,0.00,,---,0.00,VWS V14.00,2013-05-02 14:30:00,
2013-05-02 07:31:00,67.7,13.3,30.02,East,80,6.0,14.0,12,0.00,,---,0.00,VWS V14.00,2013-05-02 14:31:00,
2013-05-02 07:36:00,67.4,13.1,30.02,ENE,76,7.0,14.0,12,0.00,,---,0.00,VWS V14.00,2013-05-02 14:36:00,
2013-05-02 07:41:00,67.1,12.8,30.03,ENE,66,4.0,14.0,12,0.00,,---,0.00,VWS V14.00,2013-05-02 14:41:00,
2013-05-02 07:46:00,67.2,14.7,30.03,ENE,76,7.0,14.0,13,0.00,,---,0.00,VWS V14.00,2013-05-02 14:46:00,
2013-05-02 07:51:00,67.0,12.8,30.03,NE,51,3.0,14.0,12,0.00,,---,0.00,VWS V14.00,2013-05-02 14:51:00,
2013-05-02 07:56:00,67.1,12.8,30.02,ENE,62,14.0,16.0,12,0.00,,---,0.00,VWS V14.00,2013-05-02 14:56:00,
2013-05-02 08:00:00,67.2,12.9,30.02,ENE,58,6.0,16.0,12,0.00,,---,0.00,VWS V14.00,2013-05-02 15:00:00,
2013-05-02 08:01:00,67.2,12.9,30.02,ENE,69,10.0,16.0,12,0.00,,---,0.00,VWS V14.00,2013-05-02 15:01:00,
2013-05-02 08:06:00,67.4,13.1,30.02,NE,56,10.0,14.0,12,0.00,,---,0.00,VWS V14.00,2013-05-02 15:06:00,
2013-05-02 08:11:00,67.7,13.3,30.03,NE,51,10.0,14.0,12,0.00,,---,0.00,VWS V14.00,2013-05-02 15:11:00,
2013-05-02 08:16:00,67.6,13.2,30.03,NE,35,7.0,15.0,12,0.00,,---,0.00,VWS V14.00,2013-05-02 15:16:00,
2013-05-02 08:21:00,67.6,13.2,30.03,ENE,75,10.0,16.0,12,0.00,,---,0.00,VWS V14.00,2013-05-02 15:21:00,
2013-05-02 08:26:00,67.9,13.4,30.03,East,91,6.0,16.0,12,0.00,,---,0.00,VWS V14.00,2013-05-02 15:26:00,
2013-05-02 08:30:00,68.3,13.8,30.03,NE,55,10.0,16.0,12,0.00,,---,0.00,VWS V14.00,2013-05-02 15:30:00,
2013-05-02 08:31:00,68.3,13.8,30.03,NE,55,10.0,16.0,12,0.00,,---,0.00,VWS V14.00,2013-05-02 15:31:00,
2013-05-02 08:36:00,68.5,13.9,30.03,East,94,15.0,16.0,12,0.00,,---,0.00,VWS V14.00,2013-05-02 15:36:00,
2013-05-02 08:41:00,68.4,13.8,30.03,East,80,12.0,16.0,12,0.00,,---,0.00,VWS V14.00,2013-05-02 15:41:00,
2013-05-02 08:47:00,68.2,13.7,30.03,East,95,10.0,17.0,12,0.00,,---,0.00,VWS V14.00,2013-05-02 15:47:00,
2013-05-02 08:52:00,68.3,13.8,30.03,ENE,74,7.0,17.0,12,0.00,,---,0.00,VWS V14.00,2013-05-02 15:52:00,
2013-05-02 08:57:00,68.4,15.7,30.03,East,86,14.0,20.0,13,0.00,,---,0.00,VWS V14.00,2013-05-02 15:57:00,
2013-05-02 09:00:00,69.0,16.1,30.03,NE,49,17.0,20.0,13,0.00,,---,0.00,VWS V14.00,2013-05-02 16:00:00,
2013-05-02 09:02:00,69.1,16.2,30.03,East,85,17.0,18.0,13,0.00,,---,0.00,VWS V14.00,2013-05-02 16:02:00,
2013-05-02 09:07:00,68.9,16.1,30.03,ESE,105,7.0,18.0,13,0.00,,---,0.00,VWS V14.00,2013-05-02 16:07:00,
2013-05-02 09:12:00,69.1,16.2,30.04,ENE,71,12.0,18.0,13,0.00,,---,0.00,VWS V14.00,2013-05-02 16:12:00,
2013-05-02 09:17:00,69.5,16.5,30.04,ENE,68,11.0,18.0,13,0.00,,---,0.00,VWS V14.00,2013-05-02 16:17:00,
2013-05-02 09:22:00,69.4,18.2,30.04,ENE,61,7.0,18.0,14,0.00,,---,0.00,VWS V14.00,2013-05-02 16:22:00,
2013-05-02 09:27:00,69.8,18.5,30.04,East,88,11.0,18.0,14,0.00,,---,0.00,VWS V14.00,2013-05-02 16:27:00,
2013-05-02 09:30:00,70.4,19.0,30.04,ENE,70,10.0,18.0,14,0.00,,---,0.00,VWS V14.00,2013-05-02 16:30:00,
2013-05-02 09:32:00,70.4,19.0,30.04,ESE,104,11.0,13.0,14,0.00,,---,0.00,VWS V14.00,2013-05-02 16:32:00,
2013-05-02 09:37:00,70.4,19.0,30.04,East,101,11.0,15.0,14,0.00,,---,0.00,VWS V14.00,2013-05-02 16:37:00,
2013-05-02 09:42:00,70.4,19.0,30.05,East,97,4.0,15.0,14,0.00,,---,0.00,VWS V14.00,2013-05-02 16:42:00,
2013-05-02 09:47:00,70.7,20.8,30.04,East,96,5.0,18.0,15,0.00,,---,0.00,VWS V14.00,2013-05-02 16:47:00,
2013-05-02 09:52:00,71.1,21.1,30.04,East,84,6.0,18.0,15,0.00,,---,0.00,VWS V14.00,2013-05-02 16:52:00,
2013-05-02 09:57:00,71.7,21.6,30.04,ENE,76,10.0,18.0,15,0.00,,---,0.00,VWS V14.00,2013-05-02 16:57:00,
2013-05-02 10:00:00,71.5,21.5,30.05,ENE,78,12.0,18.0,15,0.00,,---,0.00,VWS V14.00,2013-05-02 17:00:00,
2013-05-02 10:02:00,71.5,21.5,30.05,East,85,16.0,19.0,15,0.00,,---,0.00,VWS V14.00,2013-05-02 17:02:00,
2013-05-02 10:07:00,71.3,21.3,30.05,ENE,77,10.0,19.0,15,0.00,,---,0.00,VWS V14.00,2013-05-02 17:07:00,
2013-05-02 10:12:00,71.7,21.6,30.06,East,86,4.0,19.0,15,0.00,,---,0.00,VWS V14.00,2013-05-02 17:12:00,
2013-05-02 10:17:00,72.2,22.0,30.06,ENE,69,12.0,19.0,15,0.00,,---,0.00,VWS V14.00,2013-05-02 17:17:00,
2013-05-02 10:22:00,71.9,20.2,30.06,ESE,107,6.0,19.0,14,0.00,,---,0.00,VWS V14.00,2013-05-02 17:22:00,
2013-05-02 10:27:00,71.9,21.8,30.06,East,92,12.0,19.0,15,0.00,,---,0.00,VWS V14.00,2013-05-02 17:27:00,
2013-05-02 10:30:00,72.4,20.5,30.05,ENE,74,4.0,19.0,14,0.00,,---,0.00,VWS V14.00,2013-05-02 17:30:00,
2013-05-02 10:32:00,72.4,20.5,30.05,East,101,5.0,10.0,14,0.00,,---,0.00,VWS V14.00,2013-05-02 17:32:00,
2013-05-02 10:37:00,73.1,21.1,30.06,ENE,75,5.0,12.0,14,0.00,,---,0.00,VWS V14.00,2013-05-02 17:37:00,
2013-05-02 10:42:00,72.9,21.0,30.05,NE,55,11.0,14.0,14,0.00,,---,0.00,VWS V14.00,2013-05-02 17:42:00,
2013-05-02 10:47:00,73.5,23.1,30.05,East,85,9.0,15.0,15,0.00,,---,0.00,VWS V14.00,2013-05-02 17:47:00,
2013-05-02 10:52:00,73.2,21.2,30.04,East,81,6.0,15.0,14,0.00,,---,0.00,VWS V14.00,2013-05-02 17:52:00,
2013-05-02 10:57:00,73.7,23.2,30.04,East,90,13.0,15.0,15,0.00,,---,0.00,VWS V14.00,2013-05-02 17:57:00,
2013-05-02 11:00:00,73.7,21.6,30.04,East,79,5.0,15.0,14,0.00,,---,0.00,VWS V14.00,2013-05-02 18:00:00,
2013-05-02 11:02:00,73.7,21.6,30.04,East,80,3.0,10.0,14,0.00,,---,0.00,VWS V14.00,2013-05-02 18:02:00,
2013-05-02 11:07:00,73.6,21.5,30.04,East,86,3.0,18.0,14,0.00,,---,0.00,VWS V14.00,2013-05-02 18:07:00,
2013-05-02 11:12:00,74.5,22.2,30.04,East,101,9.0,18.0,14,0.00,,---,0.00,VWS V14.00,2013-05-02 18:12:00,
2013-05-02 11:17:00,75.1,22.7,30.04,NE,52,9.0,18.0,14,0.00,,---,0.00,VWS V14.00,2013-05-02 18:17:00,
2013-05-02 11:22:00,74.7,22.4,30.04,ENE,71,5.0,18.0,14,0.00,,---,0.00,VWS V14.00,2013-05-02 18:22:00,
2013-05-02 11:27:00,74.6,22.3,30.04,East,84,4.0,18.0,14,0.00,,---,0.00,VWS V14.00,2013-05-02 18:27:00,
2013-05-02 11:30:00,74.6,22.3,30.04,East,84,7.0,18.0,14,0.00,,---,0.00,VWS V14.00,2013-05-02 18:30:00,
2013-05-02 11:33:00,74.8,22.5,30.04,East,91,10.0,11.0,14,0.00,,---,0.00,VWS V14.00,2013-05-02 18:33:00,
2013-05-02 11:38:00,74.5,22.2,30.04,ENE,69,8.0,16.0,14,0.00,,---,0.00,VWS V14.00,2013-05-02 18:38:00,
2013-05-02 11:43:00,74.6,22.3,30.04,East,92,10.0,16.0,14,0.00,,---,0.00,VWS V14.00,2013-05-02 18:43:00,
2013-05-02 11:48:00,74.9,22.5,30.04,ENE,74,3.0,16.0,14,0.00,,---,0.00,VWS V14.00,2013-05-02 18:48:00,
2013-05-02 11:53:00,75.6,23.1,30.04,ENE,72,6.0,16.0,14,0.00,,---,0.00,VWS V14.00,2013-05-02 18:53:00,
2013-05-02 11:58:00,75.6,23.1,30.04,ENE,71,7.0,16.0,14,0.00,,---,0.00,VWS V14.00,2013-05-02 18:58:00,
2013-05-02 12:00:00,75.3,22.9,30.03,NE,56,2.0,16.0,14,0.00,,---,0.00,VWS V14.00,2013-05-02 19:00:00,
2013-05-02 12:03:00,75.3,22.9,30.03,NE,56,6.0,10.0,14,0.00,,---,0.00,VWS V14.00,2013-05-02 19:03:00,
2013-05-02 12:08:00,75.3,22.9,30.03,East,96,9.0,15.0,14,0.00,,---,0.00,VWS V14.00,2013-05-02 19:08:00,
2013-05-02 12:13:00,75.3,22.9,30.03,NE,48,3.0,15.0,14,0.00,,---,0.00,VWS V14.00,2013-05-02 19:13:00,
2013-05-02 12:18:00,75.3,22.9,30.02,East,82,6.0,15.0,14,0.00,,---,0.00,VWS V14.00,2013-05-02 19:18:00,
2013-05-02 12:23:00,75.6,21.3,30.02,ENE,59,7.0,15.0,13,0.00,,---,0.00,VWS V14.00,2013-05-02 19:23:00,
2013-05-02 12:28:00,76.6,22.1,30.02,ENE,71,6.0,15.0,13,0.00,,---,0.00,VWS V14.00,2013-05-02 19:28:00,
2013-05-02 12:30:00,76.7,22.2,30.02,ENE,72,9.0,15.0,13,0.00,,---,0.00,VWS V14.00,2013-05-02 19:30:00,
2013-05-02 12:33:00,76.6,22.1,30.02,ENE,69,7.0,11.0,13,0.00,,---,0.00,VWS V14.00,2013-05-02 19:33:00,
2013-05-02 12:38:00,76.8,22.3,30.02,East,80,8.0,14.0,13,0.00,,---,0.00,VWS V14.00,2013-05-02 19:38:00,
2013-05-02 12:43:00,77.0,22.4,30.01,ENE,73,3.0,14.0,13,0.00,,---,0.00,VWS V14.00,2013-05-02 19:43:00,
2013-05-02 12:48:00,76.9,22.4,30.01,ESE,108,9.0,16.0,13,0.00,,---,0.00,VWS V14.00,2013-05-02 19:48:00,
2013-05-02 12:53:00,77.0,22.4,30.01,ENE,74,3.0,16.0,13,0.00,,---,0.00,VWS V14.00,2013-05-02 19:53:00,
2013-05-02 12:58:00,77.1,22.5,30.01,ENE,65,7.0,16.0,13,0.00,,---,0.00,VWS V14.00,2013-05-02 19:58:00,
2013-05-02 13:00:00,76.7,22.2,30.01,East,85,6.0,16.0,13,0.00,,---,0.00,VWS V14.00,2013-05-02 20:00:00,
2013-05-02 13:03:00,76.8,22.3,30.01,East,101,5.0,12.0,13,0.00,,---,0.00,VWS V14.00,2013-05-02 20:03:00,
2013-05-02 13:08:00,77.4,22.8,30.01,ESE,105,3.0,12.0,13,0.00,,---,0.00,VWS V14.00,2013-05-02 20:08:00,
2013-05-02 13:13:00,77.5,22.8,30.01,ENE,63,5.0,14.0,13,0.00,,---,0.00,VWS V14.00,2013-05-02 20:13:00,
2013-05-02 13:18:00,77.5,22.8,30.01,ENE,61,7.0,15.0,13,0.00,,---,0.00,VWS V14.00,2013-05-02 20:18:00,
2013-05-02 13:23:00,77.4,22.8,30.00,ENE,62,8.0,15.0,13,0.00,,---,0.00,VWS V14.00,2013-05-02 20:23:00,
2013-05-02 13:28:00,77.3,22.7,30.00,ENE,67,3.0,15.0,13,0.00,,---,0.00,VWS V14.00,2013-05-02 20:28:00,
2013-05-02 13:30:00,77.8,23.1,30.00,ENE,71,5.0,15.0,13,0.00,,---,0.00,VWS V14.00,2013-05-02 20:30:00,
2013-05-02 13:33:00,77.6,22.9,30.00,East,98,2.0,10.0,13,0.00,,---,0.00,VWS V14.00,2013-05-02 20:33:00,
2013-05-02 13:38:00,77.6,22.9,30.00,ENE,68,12.0,15.0,13,0.00,,---,0.00,VWS V14.00,2013-05-02 20:38:00,
2013-05-02 13:43:00,77.5,22.8,30.00,SE,138,2.0,15.0,13,0.00,,---,0.00,VWS V14.00,2013-05-02 20:43:00,
2013-05-02 13:48:00,77.9,23.1,30.00,NE,49,2.0,15.0,13,0.00,,---,0.00,VWS V14.00,2013-05-02 20:48:00,
2013-05-02 13:54:00,77.7,23.0,30.00,East,86,6.0,15.0,13,0.00,,---,0.00,VWS V14.00,2013-05-02 20:54:00,
2013-05-02 13:58:00,77.5,24.6,29.99,NE,54,5.0,15.0,14,0.00,,---,0.00,VWS V14.00,2013-05-02 20:58:00,
2013-05-02 14:00:00,77.8,23.1,29.99,ENE,57,5.0,15.0,13,0.00,,---,0.00,VWS V14.00,2013-05-02 21:00:00,
2013-05-02 14:04:00,77.9,23.1,30.00,East,89,9.0,14.0,13,0.00,,---,0.00,VWS V14.00,2013-05-02 21:04:00,
2013-05-02 14:09:00,77.8,23.1,29.99,East,88,9.0,14.0,13,0.00,,---,0.00,VWS V14.00,2013-05-02 21:09:00,
2013-05-02 14:14:00,77.8,23.1,29.99,East,84,5.0,14.0,13,0.00,,---,0.00,VWS V14.00,2013-05-02 21:14:00,
2013-05-02 14:19:00,77.6,24.7,29.99,East,86,7.0,14.0,14,0.00,,---,0.00,VWS V14.00,2013-05-02 21:19:00,
2013-05-02 14:24:00,78.0,23.2,29.99,East,95,11.0,16.0,13,0.00,,---,0.00,VWS V14.00,2013-05-02 21:24:00,
2013-05-02 14:29:00,77.5,24.6,29.99,East,87,4.0,16.0,14,0.00,,---,0.00,VWS V14.00,2013-05-02 21:29:00,
2013-05-02 14:30:00,77.6,24.7,29.98,ESE,112,12.0,16.0,14,0.00,,---,0.00,VWS V14.00,2013-05-02 21:30:00,
2013-05-02 14:34:00,77.6,24.7,29.99,ESE,109,6.0,12.0,14,0.00,,---,0.00,VWS V14.00,2013-05-02 21:34:00,
2013-05-02 14:39:00,78.1,25.1,29.99,NE,52,4.0,12.0,14,0.00,,---,0.00,VWS V14.00,2013-05-02 21:39:00,
2013-05-02 14:44:00,78.7,23.8,29.99,East,86,10.0,12.0,13,0.00,,---,0.00,VWS V14.00,2013-05-02 21:44:00,
2013-05-02 14:49:00,78.1,23.3,29.98,ENE,67,4.0,14.0,13,0.00,,---,0.00,VWS V14.00,2013-05-02 21:49:00,
2013-05-02 14:54:00,78.7,23.8,29.99,ENE,68,9.0,14.0,13,0.00,,---,0.00,VWS V14.00,2013-05-02 21:54:00,
2013-05-02 14:59:00,78.3,25.2,29.98,ENE,69,12.0,14.0,14,0.00,,---,0.00,VWS V14.00,2013-05-02 21:59:00,
2013-05-02 15:00:00,78.1,23.3,29.98,NE,44,4.0,14.0,13,0.00,,---,0.00,VWS V14.00,2013-05-02 22:00:00,
2013-05-02 15:04:00,77.9,24.9,29.98,NE,51,0.0,5.0,14,0.00,,---,0.00,VWS V14.00,2013-05-02 22:04:00,
2013-05-02 15:09:00,77.8,24.8,29.98,ENE,57,0.0,10.0,14,0.00,,---,0.00,VWS V14.00,2013-05-02 22:09:00,
2013-05-02 15:14:00,77.5,24.6,29.98,ENE,72,8.0,13.0,14,0.00,,---,0.00,VWS V14.00,2013-05-02 22:14:00,
2013-05-02 15:19:00,77.7,24.8,29.97,ENE,76,11.0,13.0,14,0.00,,---,0.00,VWS V14.00,2013-05-02 22:19:00,
2013-05-02 15:24:00,78.1,25.1,29.97,ESE,121,3.0,13.0,14,0.00,,---,0.00,VWS V14.00,2013-05-02 22:24:00,
2013-05-02 15:29:00,78.5,23.6,29.97,ENE,78,1.0,13.0,13,0.00,,---,0.00,VWS V14.00,2013-05-02 22:29:00,
2013-05-02 15:30:00,78.5,23.6,29.97,East,82,3.0,13.0,13,0.00,,---,0.00,VWS V14.00,2013-05-02 22:30:00,
2013-05-02 15:34:00,78.4,25.3,29.97,ENE,78,5.0,11.0,14,0.00,,---,0.00,VWS V14.00,2013-05-02 22:34:00,
2013-05-02 15:39:00,77.7,24.8,29.97,ENE,68,5.0,11.0,14,0.00,,---,0.00,VWS V14.00,2013-05-02 22:39:00,
2013-05-02 15:44:00,77.5,24.6,29.97,NE,50,4.0,11.0,14,0.00,,---,0.00,VWS V14.00,2013-05-02 22:44:00,
2013-05-02 15:49:00,77.8,24.8,29.97,East,96,0.0,11.0,14,0.00,,---,0.00,VWS V14.00,2013-05-02 22:49:00,
2013-05-02 15:54:00,78.0,25.0,29.97,ENE,77,3.0,14.0,14,0.00,,---,0.00,VWS V14.00,2013-05-02 22:54:00,
2013-05-02 15:59:00,78.2,25.1,29.97,ENE,61,6.0,14.0,14,0.00,,---,0.00,VWS V14.00,2013-05-02 22:59:00,
2013-05-02 16:00:00,78.1,25.1,29.97,North,350,5.0,14.0,14,0.00,,---,0.00,VWS V14.00,2013-05-02 23:00:00,
2013-05-02 16:04:00,78.2,25.1,29.96,ENE,70,3.0,9.0,14,0.00,,---,0.00,VWS V14.00,2013-05-02 23:04:00,
2013-05-02 16:10:00,78.1,25.1,29.96,NE,48,3.0,9.0,14,0.00,,---,0.00,VWS V14.00,2013-05-02 23:10:00,
2013-05-02 16:15:00,78.0,23.2,29.96,ENE,63,4.0,13.0,13,0.00,,---,0.00,VWS V14.00,2013-05-02 23:15:00,
2013-05-02 16:20:00,78.0,25.0,29.96,East,99,6.0,13.0,14,0.00,,---,0.00,VWS V14.00,2013-05-02 23:20:00,
2013-05-02 16:25:00,78.0,25.0,29.96,ENE,76,6.0,13.0,14,0.00,,---,0.00,VWS V14.00,2013-05-02 23:25:00,
2013-05-02 16:30:00,77.6,24.7,29.96,ENE,64,6.0,13.0,14,0.00,,---,0.00,VWS V14.00,2013-05-02 23:30:00,
2013-05-02 16:35:00,77.9,24.9,29.96,East,92,12.0,13.0,14,0.00,,---,0.00,VWS V14.00,2013-05-02 23:35:00,
2013-05-02 16:40:00,77.6,24.7,29.96,NE,44,3.0,13.0,14,0.00,,---,0.00,VWS V14.00,2013-05-02 23:40:00,
2013-05-02 16:45:00,77.7,24.8,29.96,East,84,4.0,13.0,14,0.00,,---,0.00,VWS V14.00,2013-05-02 23:45:00,
2013-05-02 16:50:00,77.1,24.3,29.96,East,94,6.0,15.0,14,0.00,,---,0.00,VWS V14.00,2013-05-02 23:50:00,
2013-05-02 16:55:00,76.7,24.0,29.96,NE,55,15.0,15.0,14,0.00,,---,0.00,VWS V14.00,2013-05-02 23:55:00,
2013-05-02 17:00:00,76.5,23.8,29.96,ENE,65,8.0,15.0,14,0.00,,---,0.00,VWS V14.00,2013-05-03 00:00:00,
2013-05-02 17:05:00,76.2,23.6,29.96,NE,45,4.0,16.0,14,0.00,,---,0.00,VWS V14.00,2013-05-03 00:05:00,
2013-05-02 17:10:00,76.4,23.7,29.96,ENE,67,4.0,16.0,14,0.00,,---,0.00,VWS V14.00,2013-05-03 00:10:00,
2013-05-02 17:15:00,76.4,23.7,29.96,NE,46,6.0,16.0,14,0.00,,---,0.00,VWS V14.00,2013-05-03 00:15:00,
2013-05-02 17:20:00,76.0,23.4,29.96,East,94,7.0,16.0,14,0.00,,---,0.00,VWS V14.00,2013-05-03 00:20:00,
2013-05-02 17:25:00,75.7,23.2,29.96,ENE,59,4.0,16.0,14,0.00,,---,0.00,VWS V14.00,2013-05-03 00:25:00,
2013-05-02 17:30:00,75.8,23.2,29.96,East,84,3.0,16.0,14,0.00,,---,0.00,VWS V14.00,2013-05-03 00:30:00,
2013-05-02 17:35:00,75.5,23.0,29.97,NE,55,5.0,13.0,14,0.00,,---,0.00,VWS V14.00,2013-05-03 00:35:00,
2013-05-02 17:40:00,75.3,22.9,29.97,ENE,63,4.0,13.0,14,0.00,,---,0.00,VWS V14.00,2013-05-03 00:40:00,
2013-05-02 17:45:00,74.8,22.5,29.97,NE,46,9.0,14.0,14,0.00,,---,0.00,VWS V14.00,2013-05-03 00:45:00,
2013-05-02 17:50:00,74.5,22.2,29.97,NE,49,4.0,16.0,14,0.00,,---,0.00,VWS V14.00,2013-05-03 00:50:00,
2013-05-02 17:55:00,74.2,22.0,29.97,East,85,14.0,16.0,14,0.00,,---,0.00,VWS V14.00,2013-05-03 00:55:00,
2013-05-02 18:00:00,73.7,23.2,29.97,ENE,59,11.0,17.0,15,0.00,,---,0.00,VWS V14.00,2013-05-03 01:00:00,
2013-05-02 18:05:00,73.4,23.0,29.97,NE,55,11.0,14.0,15,0.00,,---,0.00,VWS V14.00,2013-05-03 01:05:00,
2013-05-02 18:10:00,73.1,22.7,29.96,NNE,30,3.0,14.0,15,0.00,,---,0.00,VWS V14.00,2013-05-03 01:10:00,
2013-05-02 18:16:00,72.8,22.5,29.97,ENE,63,9.0,16.0,15,0.00,,---,0.00,VWS V14.00,2013-05-03 01:16:00,
2013-05-02 18:21:00,72.4,22.2,29.97,NE,41,6.0,16.0,15,0.00,,---,0.00,VWS V14.00,2013-05-03 01:21:00,
2013-05-02 18:26:00,72.0,21.9,29.97,NE,46,7.0,19.0,15,0.00,,---,0.00,VWS V14.00,2013-05-03 01:26:00,
2013-05-02 18:30:00,71.4,22.9,29.97,NE,53,5.0,19.0,16,0.00,,---,0.00,VWS V14.00,2013-05-03 01:30:00,
2013-05-02 18:31:00,71.5,23.0,29.97,ENE,61,13.0,19.0,16,0.00,,---,0.00,VWS V14.00,2013-05-03 01:31:00,
2013-05-02 18:36:00,71.1,22.7,29.97,ENE,70,8.0,15.0,16,0.00,,---,0.00,VWS V14.00,2013-05-03 01:36:00,
2013-05-02 18:41:00,70.6,22.3,29.97,ENE,71,5.0,15.0,16,0.00,,---,0.00,VWS V14.00,2013-05-03 01:41:00,
2013-05-02 18:46:00,70.2,21.9,29.97,ENE,74,6.0,15.0,16,0.00,,---,0.00,VWS V14.00,2013-05-03 01:46:00,
2013-05-02 18:51:00,69.7,21.5,29.97,ENE,59,12.0,16.0,16,0.00,,---,0.00,VWS V14.00,2013-05-03 01:51:00,
2013-05-02 18:56:00,69.2,22.6,29.97,East,92,6.0,16.0,17,0.00,,---,0.00,VWS V14.00,2013-05-03 01:56:00,
2013-05-02 19:00:00,68.9,22.3,29.98,ENE,68,8.0,17.0,17,0.00,,---,0.00,VWS V14.00,2013-05-03 02:00:00,
2013-05-02 19:01:00,68.9,22.3,29.97,ENE,69,10.0,17.0,17,0.00,,---,0.00,VWS V14.00,2013-05-03 02:01:00,
2013-05-02 19:06:00,68.7,22.2,29.98,ENE,67,4.0,12.0,17,0.00,,---,0.00,VWS V14.00,2013-05-03 02:06:00,
2013-05-02 19:11:00,68.4,21.9,29.98,ENE,61,5.0,13.0,17,0.00,,---,0.00,VWS V14.00,2013-05-03 02:11:00,
2013-05-02 19:16:00,68.0,21.6,29.98,ENE,59,9.0,13.0,17,0.00,,---,0.00,VWS V14.00,2013-05-03 02:16:00,
2013-05-02 19:21:00,68.0,23.0,29.98,ENE,78,6.0,15.0,18,0.00,,---,0.00,VWS V14.00,2013-05-03 02:21:00,
2013-05-02 19:26:00,67.7,22.7,29.98,ENE,67,11.0,15.0,18,0.00,,---,0.00,VWS V14.00,2013-05-03 02:26:00,
2013-05-02 19:30:00,67.4,22.5,29.98,East,79,5.0,15.0,18,0.00,,---,0.00,VWS V14.00,2013-05-03 02:30:00,
2013-05-02 19:31:00,67.5,22.5,29.98,ENE,63,9.0,15.0,18,0.00,,---,0.00,VWS V14.00,2013-05-03 02:31:00,
2013-05-02 19:36:00,67.4,22.5,29.98,East,92,4.0,13.0,18,0.00,,---,0.00,VWS V14.00,2013-05-03 02:36:00,
2013-05-02 19:41:00,67.3,22.4,29.99,ENE,61,5.0,13.0,18,0.00,,---,0.00,VWS V14.00,2013-05-03 02:41:00,
2013-05-02 19:46:00,67.2,22.3,29.99,ENE,78,2.0,13.0,18,0.00,,---,0.00,VWS V14.00,2013-05-03 02:46:00,
2013-05-02 19:51:00,66.9,23.3,29.99,East,86,6.0,13.0,19,0.00,,---,0.00,VWS V14.00,2013-05-03 02:51:00,
2013-05-02 19:56:00,66.7,23.2,29.99,ENE,67,6.0,13.0,19,0.00,,---,0.00,VWS V14.00,2013-05-03 02:56:00,
2013-05-02 20:00:00,66.4,24.1,29.99,East,90,12.0,13.0,20,0.00,,---,0.00,VWS V14.00,2013-05-03 03:00:00,
2013-05-02 20:01:00,66.4,24.1,29.99,East,98,7.0,13.0,20,0.00,,---,0.00,VWS V14.00,2013-05-03 03:01:00,
2013-05-02 20:06:00,65.9,23.7,29.99,East,87,6.0,12.0,20,0.00,,---,0.00,VWS V14.00,2013-05-03 03:06:00,
2013-05-02 20:11:00,65.6,24.6,29.99,ENE,69,8.0,15.0,21,0.00,,---,0.00,VWS V14.00,2013-05-03 03:11:00,
2013-05-02 20:16:00,65.3,24.4,29.99,ENE,69,4.0,15.0,21,0.00,,---,0.00,VWS V14.00,2013-05-03 03:16:00,
2013-05-02 20:21:00,65.0,24.1,30.00,ENE,59,2.0,15.0,21,0.00,,---,0.00,VWS V14.00,2013-05-03 03:21:00,
2013-05-02 20:26:00,64.7,23.9,30.00,ENE,78,9.0,15.0,21,0.00,,---,0.00,VWS V14.00,2013-05-03 03:26:00,
2013-05-02 20:30:00,64.5,23.7,30.00,East,88,7.0,15.0,21,0.00,,---,0.00,VWS V14.00,2013-05-03 03:30:00,
2013-05-02 20:31:00,64.5,23.7,30.00,East,88,7.0,15.0,21,0.00,,---,0.00,VWS V14.00,2013-05-03 03:31:00,
2013-05-02 20:36:00,64.1,23.4,30.00,ENE,64,9.0,11.0,21,0.00,,---,0.00,VWS V14.00,2013-05-03 03:36:00,
2013-05-02 20:41:00,64.0,24.4,30.00,ENE,58,4.0,11.0,22,0.00,,---,0.00,VWS V14.00,2013-05-03 03:41:00,
2013-05-02 20:46:00,63.6,24.1,30.00,ENE,75,4.0,11.0,22,0.00,,---,0.00,VWS V14.00,2013-05-03 03:46:00,
2013-05-02 20:51:00,63.6,24.1,30.01,ENE,71,1.0,11.0,22,0.00,,---,0.00,VWS V14.00,2013-05-03 03:51:00,
2013-05-02 20:56:00,63.3,23.8,30.01,ENE,75,4.0,11.0,22,0.00,,---,0.00,VWS V14.00,2013-05-03 03:56:00,
2013-05-02 21:00:00,63.0,23.6,30.02,East,84,7.0,11.0,22,0.00,,---,0.00,VWS V14.00,2013-05-03 04:00:00,
2013-05-02 21:01:00,63.1,23.7,30.02,ENE,68,3.0,11.0,22,0.00,,---,0.00,VWS V14.00,2013-05-03 04:01:00,
2013-05-02 21:02:00,63.0,23.6,30.02,ENE,78,5.0,7.0,22,0.00,,---,0.00,VWS V14.00,2013-05-03 04:02:00,
2013-05-02 21:07:00,62.6,23.2,30.02,East,80,3.0,12.0,22,0.00,,---,0.00,VWS V14.00,2013-05-03 04:07:00,
2013-05-02 21:12:00,62.6,23.2,30.02,East,82,2.0,12.0,22,0.00,,---,0.00,VWS V14.00,2013-05-03 04:12:00,
2013-05-02 21:17:00,62.4,23.1,30.02,East,93,0.0,12.0,22,0.00,,---,0.00,VWS V14.00,2013-05-03 04:17:00,
2013-05-02 21:22:00,62.4,23.1,30.02,ESE,107,6.0,12.0,22,0.00,,---,0.00,VWS V14.00,2013-05-03 04:22:00,
2013-05-02 21:27:00,62.3,23.0,30.03,East,79,4.0,12.0,22,0.00,,---,0.00,VWS V14.00,2013-05-03 04:27:00,
2013-05-02 21:30:00,61.9,23.7,30.03,East,84,0.0,12.0,23,0.00,,---,0.00,VWS V14.00,2013-05-03 04:30:00,
2013-05-02 21:32:00,61.8,23.6,30.03,East,84,0.0,0.0,23,0.00,,---,0.00,VWS V14.00,2013-05-03 04:32:00,
2013-05-02 21:37:00,61.3,23.2,30.03,East,84,0.0,4.0,23,0.00,,---,0.00,VWS V14.00,2013-05-03 04:37:00,
2013-05-02 21:42:00,60.4,22.5,30.03,East,82,0.0,4.0,23,0.00,,---,0.00,VWS V14.00,2013-05-03 04:42:00,
2013-05-02 21:47:00,59.7,22.9,30.04,East,82,0.0,4.0,24,0.00,,---,0.00,VWS V14.00,2013-05-03 04:47:00,
2013-05-02 21:52:00,59.1,22.4,30.04,East,82,0.0,4.0,24,0.00,,---,0.00,VWS V14.00,2013-05-03 04:52:00,
2013-05-02 21:57:00,58.5,22.8,30.04,East,98,1.0,4.0,25,0.00,,---,0.00,VWS V14.00,2013-05-03 04:57:00,
2013-05-02 22:00:00,58.1,22.5,30.04,ESE,108,0.0,4.0,25,0.00,,---,0.00,VWS V14.00,2013-05-03 05:00:00,
2013-05-02 22:02:00,58.1,22.5,30.04,ESE,108,0.0,0.0,25,0.00,,---,0.00,VWS V14.00,2013-05-03 05:02:00,
2013-05-02 22:07:00,58.2,23.5,30.04,ESE,123,0.0,7.0,26,0.00,,---,0.00,VWS V14.00,2013-05-03 05:07:00,
2013-05-02 22:12:00,58.0,22.4,30.04,ESE,122,3.0,7.0,25,0.00,,---,0.00,VWS V14.00,2013-05-03 05:12:00,
2013-05-02 22:17:00,57.6,23.0,30.04,ESE,121,0.0,7.0,26,0.00,,---,0.00,VWS V14.00,2013-05-03 05:17:00,
2013-05-02 22:22:00,56.8,22.3,30.04,East,98,0.0,7.0,26,0.00,,---,0.00,VWS V14.00,2013-05-03 05:22:00,
2013-05-02 22:27:00,56.2,21.8,30.04,East,98,0.0,7.0,26,0.00,,---,0.00,VWS V14.00,2013-05-03 05:27:00,
2013-05-02 22:30:00,55.6,22.2,30.04,East,98,4.0,7.0,27,0.00,,---,0.00,VWS V14.00,2013-05-03 05:30:00,
2013-05-02 22:32:00,55.6,22.2,30.04,East,98,5.0,5.0,27,0.00,,---,0.00,VWS V14.00,2013-05-03 05:32:00,
2013-05-02 22:37:00,55.7,22.3,30.04,East,98,0.0,5.0,27,0.00,,---,0.00,VWS V14.00,2013-05-03 05:37:00,
2013-05-02 22:42:00,55.6,23.0,30.04,East,98,0.0,5.0,28,0.00,,---,0.00,VWS V14.00,2013-05-03 05:42:00,
2013-05-02 23:00:00,55.2,22.7,30.04,East,90,0.0,5.0,28,0.00,,---,0.00,VWS V14.00,2013-05-03 06:00:00,
2013-05-02 23:30:00,53.8,22.3,30.04,SE,135,2.0,9.0,29,0.00,,---,0.00,VWS V14.00,2013-05-03 06:30:00,